Terminal Aerodrome Forecast
Issued by NWS

Home | Current Version | Previous Version | Text Only | Print | Product List | Glossary On
Versions: 1 2 3 4 5 6 7 8 9 10 11 12 13 14 15 16 17 18 19 20 21 22 23 24
000
FTUS44 KBMX 012331
TAFTOI
TAF
KTOI 012331Z 0200/0224 30010G19KT 1SM +TSRA BKN040CB
     FM020100 30010G15KT 3SM SHRA VCTS BKN090CB
     FM020200 VRB02KT P6SM BKN090
     FM020900 VRB02KT P6SM OVC015
     FM021500 17005KT P6SM VCSH BKN040=

USA.gov is the U.S. government's official web portal to all federal, state and local government web resources and services.